Time;durP1;ratioP1;P1;durP2;ratioP2;P2;SDS_P1;SDS_P2;PMS_P1;PMS_P2;Temp;Humidity;BMP_temperature;BMP_pressure;BME280_temperature;BME280_humidity;BME280_pressure;Samples;Min_cycle;Max_cycle;Signal;HPM_P1;HPM_P2
2023/08/26 00:01:43;;;;;;;26.35;12.20;;;16.20;99.90;;;;;;4986683;28;20131;-75
2023/08/26 00:04:09;;;;;;;19.73;11.50;;;16.20;99.90;;;;;;4984136;28;20054;-75
2023/08/26 00:06:34;;;;;;;17.73;10.73;;;16.10;99.90;;;;;;5000609;28;20039;-75
2023/08/26 00:09:00;;;;;;;18.83;10.68;;;16.10;99.90;;;;;;4984663;28;20386;-76
2023/08/26 00:11:26;;;;;;;18.90;11.02;;;16.00;99.90;;;;;;4970147;28;20042;-75
2023/08/26 00:13:52;;;;;;;19.95;10.75;;;16.00;99.90;;;;;;4967176;28;20042;-75
2023/08/26 00:16:17;;;;;;;17.95;10.20;;;15.90;99.90;;;;;;5000593;28;20052;-76
2023/08/26 00:18:43;;;;;;;17.95;10.45;;;15.80;99.90;;;;;;4996409;28;20048;-76
2023/08/26 00:21:10;;;;;;;23.05;12.05;;;15.80;99.90;;;;;;4990049;28;20045;-75
2023/08/26 00:23:36;;;;;;;19.23;10.45;;;15.80;99.90;;;;;;4998340;28;20122;-76
2023/08/26 00:26:02;;;;;;;15.77;10.10;;;15.80;99.90;;;;;;4999820;28;20493;-76
2023/08/26 00:28:28;;;;;;;18.15;10.65;;;15.90;99.90;;;;;;4997379;28;20045;-75
2023/08/26 00:30:58;;;;;;;17.25;10.23;;;15.90;99.90;;;;;;4974907;28;20428;-75
2023/08/26 00:33:24;;;;;;;18.77;10.05;;;15.90;99.90;;;;;;4989039;28;20042;-75
2023/08/26 00:35:49;;;;;;;17.23;10.73;;;15.90;99.90;;;;;;4966093;28;20101;-76
2023/08/26 00:38:15;;;;;;;16.42;9.77;;;15.80;99.90;;;;;;4990445;28;20125;-75
2023/08/26 00:40:41;;;;;;;15.80;9.30;;;15.80;99.90;;;;;;4971807;28;20125;-76
2023/08/26 00:43:10;;;;;;;15.55;9.00;;;15.80;99.90;;;;;;4978615;28;20113;-75
2023/08/26 00:45:45;;;;;;;12.68;8.25;;;15.60;99.90;;;;;;4988749;28;20050;-75
2023/08/26 00:48:12;;;;;;;12.20;7.68;;;15.60;99.90;;;;;;4977819;28;20037;-76
2023/08/26 00:50:39;;;;;;;15.50;8.40;;;15.50;99.90;;;;;;4986450;28;20046;-75
2023/08/26 00:53:06;;;;;;;19.15;9.20;;;15.50;99.90;;;;;;4982256;28;20110;-75
2023/08/26 00:55:32;;;;;;;16.38;9.25;;;15.50;99.90;;;;;;4996001;28;20605;-75
2023/08/26 00:57:58;;;;;;;15.60;9.27;;;15.40;99.90;;;;;;4986043;28;20117;-75
2023/08/26 01:00:25;;;;;;;17.80;8.88;;;15.40;99.90;;;;;;4990398;28;20141;-75
2023/08/26 01:02:50;;;;;;;13.75;8.48;;;15.40;99.90;;;;;;4983378;28;20505;-76
2023/08/26 01:05:16;;;;;;;12.18;8.38;;;15.40;99.90;;;;;;4979251;28;20049;-75
2023/08/26 01:07:44;;;;;;;13.93;8.52;;;15.40;99.90;;;;;;4982735;28;20069;-75
2023/08/26 01:10:10;;;;;;;13.57;8.27;;;15.40;99.90;;;;;;4986672;28;20031;-75
2023/08/26 01:12:59;;;;;;;18.10;9.63;;;15.40;99.90;;;;;;4981906;28;20045;-74
2023/08/26 01:15:28;;;;;;;13.48;8.68;;;15.40;99.90;;;;;;4982693;28;20046;-76
2023/08/26 01:17:54;;;;;;;16.23;8.77;;;15.40;99.90;;;;;;4983784;28;20049;-75
2023/08/26 01:20:21;;;;;;;12.07;7.95;;;15.40;99.90;;;;;;4968796;28;20046;-75
2023/08/26 01:22:50;;;;;;;13.93;8.48;;;15.40;99.90;;;;;;5000921;28;20042;-75
2023/08/26 01:25:16;;;;;;;13.48;8.23;;;15.40;99.90;;;;;;4976566;28;20054;-75
2023/08/26 01:27:42;;;;;;;12.00;7.78;;;15.40;99.90;;;;;;5000718;28;20117;-75
2023/08/26 01:30:09;;;;;;;12.23;7.85;;;15.30;99.90;;;;;;4983206;28;20157;-75
2023/08/26 01:32:46;;;;;;;15.27;8.35;;;15.30;99.90;;;;;;4981852;28;20441;-76
2023/08/26 01:35:15;;;;;;;16.23;8.02;;;15.40;99.90;;;;;;4985138;28;20053;-75
2023/08/26 01:37:43;;;;;;;13.52;8.02;;;15.30;99.90;;;;;;4999219;28;20489;-75
2023/08/26 01:40:11;;;;;;;19.17;8.20;;;15.30;99.90;;;;;;5000349;28;20514;-75
2023/08/26 01:42:40;;;;;;;14.57;8.05;;;15.30;99.90;;;;;;4998043;28;20043;-75
2023/08/26 01:45:06;;;;;;;13.30;7.30;;;15.30;99.90;;;;;;4975892;28;20050;-75
2023/08/26 01:47:32;;;;;;;14.18;7.65;;;15.20;99.90;;;;;;4982833;28;20492;-75
2023/08/26 01:49:57;;;;;;;10.85;7.43;;;15.20;99.90;;;;;;4988538;28;20117;-75
2023/08/26 01:52:23;;;;;;;10.77;7.13;;;15.20;99.90;;;;;;4984491;28;20035;-75
2023/08/26 01:54:49;;;;;;;14.23;7.50;;;15.10;99.90;;;;;;4965785;28;20045;-76
2023/08/26 01:57:18;;;;;;;12.32;7.40;;;15.10;99.90;;;;;;5002295;28;20468;-75
2023/08/26 01:59:44;;;;;;;11.35;6.85;;;15.10;99.90;;;;;;4971732;28;20041;-75
2023/08/26 02:02:09;;;;;;;12.43;7.38;;;15.00;99.90;;;;;;5000006;28;20034;-75
2023/08/26 02:04:37;;;;;;;12.38;6.78;;;14.90;99.90;;;;;;4971959;28;20439;-74
2023/08/26 02:07:03;;;;;;;12.85;6.93;;;14.90;99.90;;;;;;4989808;28;20057;-74
2023/08/26 02:09:29;;;;;;;17.23;6.97;;;14.80;99.90;;;;;;5013133;28;20413;-75
2023/08/26 02:11:55;;;;;;;13.45;6.85;;;14.80;99.90;;;;;;4991034;28;20045;-75
2023/08/26 02:14:20;;;;;;;11.07;6.40;;;14.80;99.90;;;;;;4973262;28;20081;-75
2023/08/26 02:16:46;;;;;;;14.80;6.78;;;14.80;99.90;;;;;;4983798;28;20524;-76
2023/08/26 02:19:12;;;;;;;14.95;7.35;;;14.80;99.90;;;;;;4990315;28;20046;-75
2023/08/26 02:21:38;;;;;;;11.52;6.43;;;14.70;99.90;;;;;;4979938;28;20053;-75
2023/08/26 02:24:03;;;;;;;12.48;6.53;;;14.70;99.90;;;;;;4995131;28;20121;-75
2023/08/26 02:26:29;;;;;;;13.45;6.53;;;14.70;99.90;;;;;;4984518;28;20102;-75
2023/08/26 02:28:55;;;;;;;10.57;6.47;;;14.60;99.90;;;;;;5003259;28;20406;-75
2023/08/26 02:31:20;;;;;;;11.32;6.25;;;14.50;99.90;;;;;;4969899;28;20062;-75
2023/08/26 02:33:46;;;;;;;10.65;6.53;;;14.40;99.90;;;;;;4992734;28;20077;-76
2023/08/26 02:36:12;;;;;;;11.02;7.03;;;14.40;99.90;;;;;;4999377;28;20046;-77
2023/08/26 02:38:37;;;;;;;10.52;6.88;;;14.40;99.90;;;;;;4986311;28;20493;-76
2023/08/26 02:41:03;;;;;;;11.38;6.47;;;14.30;99.90;;;;;;5000506;28;20523;-76
2023/08/26 02:43:28;;;;;;;9.07;6.53;;;14.30;99.90;;;;;;4978101;28;20493;-75
2023/08/26 02:45:55;;;;;;;13.02;7.03;;;14.30;99.90;;;;;;4978245;28;20120;-76
2023/08/26 02:48:26;;;;;;;10.25;5.95;;;14.20;99.90;;;;;;4984927;28;20038;-76
2023/08/26 02:50:59;;;;;;;10.50;6.28;;;14.20;99.90;;;;;;4981706;28;20042;-75
2023/08/26 02:53:26;;;;;;;8.57;6.03;;;14.20;99.90;;;;;;4966651;28;20053;-76
2023/08/26 02:55:53;;;;;;;9.00;5.95;;;14.20;99.90;;;;;;4990021;28;20061;-76
2023/08/26 02:58:19;;;;;;;12.38;6.68;;;14.20;99.90;;;;;;4984558;28;20140;-76
2023/08/26 03:00:45;;;;;;;12.27;6.57;;;14.20;99.90;;;;;;4985984;28;20049;-75
2023/08/26 03:03:11;;;;;;;9.73;6.35;;;14.20;99.90;;;;;;5002272;28;20557;-75
2023/08/26 03:05:36;;;;;;;11.15;6.60;;;14.20;99.90;;;;;;4985336;28;20118;-76
2023/08/26 03:08:02;;;;;;;13.93;7.10;;;14.20;99.90;;;;;;4999754;28;20046;-75
2023/08/26 03:10:28;;;;;;;10.98;6.15;;;14.20;99.90;;;;;;4986812;28;20030;-76
2023/08/26 03:12:54;;;;;;;9.85;5.93;;;14.20;99.90;;;;;;4995943;28;20091;-75
2023/08/26 03:15:20;;;;;;;11.02;6.18;;;14.20;99.90;;;;;;5000990;28;20050;-75
2023/08/26 03:17:45;;;;;;;11.45;6.22;;;14.30;99.90;;;;;;4989180;28;20041;-75
2023/08/26 03:20:12;;;;;;;12.23;5.40;;;14.20;99.90;;;;;;4983491;28;20085;-76
2023/08/26 03:22:37;;;;;;;10.15;5.75;;;14.20;99.90;;;;;;4962510;28;20042;-75
2023/08/26 03:25:04;;;;;;;9.80;5.72;;;14.10;99.90;;;;;;4980847;28;20045;-74
2023/08/26 03:27:30;;;;;;;9.57;5.68;;;14.00;99.90;;;;;;4984714;28;20485;-75
2023/08/26 03:29:55;;;;;;;8.75;5.15;;;14.00;99.90;;;;;;4969545;28;20058;-75
2023/08/26 03:32:21;;;;;;;8.25;5.13;;;13.80;99.90;;;;;;4985223;28;20042;-76
2023/08/26 03:34:47;;;;;;;7.60;4.85;;;13.80;99.90;;;;;;4986130;28;20047;-75
2023/08/26 03:37:13;;;;;;;8.48;5.15;;;13.70;99.90;;;;;;4986150;28;20052;-76
2023/08/26 03:39:39;;;;;;;10.13;4.85;;;13.70;99.90;;;;;;4995427;28;20478;-75
2023/08/26 03:42:05;;;;;;;10.73;5.03;;;13.60;99.90;;;;;;5002777;28;20100;-75
2023/08/26 03:44:31;;;;;;;6.80;4.80;;;13.60;99.90;;;;;;4985442;28;20432;-75
2023/08/26 03:46:56;;;;;;;9.20;4.82;;;13.60;99.90;;;;;;4986409;28;20046;-75
2023/08/26 03:49:22;;;;;;;7.25;4.57;;;13.50;99.90;;;;;;4991501;28;20040;-75
2023/08/26 03:51:48;;;;;;;7.57;5.32;;;13.40;99.90;;;;;;5001922;28;20074;-75
2023/08/26 03:54:14;;;;;;;7.82;4.68;;;13.40;99.90;;;;;;4999117;28;20049;-75
2023/08/26 03:56:39;;;;;;;6.82;4.65;;;13.40;99.90;;;;;;4977296;28;20123;-75
2023/08/26 03:59:06;;;;;;;9.98;5.25;;;13.30;99.90;;;;;;4980179;28;20047;-76
2023/08/26 04:01:32;;;;;;;6.88;4.60;;;13.30;99.90;;;;;;4983269;28;20120;-75
2023/08/26 04:03:58;;;;;;;10.93;5.43;;;13.20;99.90;;;;;;5000056;28;20078;-75
2023/08/26 04:06:23;;;;;;;7.72;4.93;;;13.10;99.90;;;;;;4985656;28;20038;-75
2023/08/26 04:08:49;;;;;;;7.53;4.45;;;13.10;99.90;;;;;;4984920;28;20042;-75
2023/08/26 04:11:17;;;;;;;7.93;4.95;;;13.10;99.90;;;;;;4968820;28;20034;-75
2023/08/26 04:13:45;;;;;;;15.50;5.30;;;13.00;99.90;;;;;;4983830;28;20054;-75
2023/08/26 04:16:11;;;;;;;8.25;4.43;;;13.00;99.90;;;;;;4982377;28;20644;-76
2023/08/26 04:18:36;;;;;;;9.02;4.60;;;13.00;99.90;;;;;;4980384;28;20053;-75
2023/08/26 04:21:02;;;;;;;8.35;4.53;;;12.90;99.90;;;;;;4978032;28;20042;-75
2023/08/26 04:23:29;;;;;;;9.60;4.80;;;13.00;99.90;;;;;;4974850;28;20562;-75
2023/08/26 04:26:02;;;;;;;6.95;4.53;;;13.00;99.90;;;;;;4985153;28;20038;-75
2023/08/26 04:28:29;;;;;;;7.28;4.78;;;13.00;99.90;;;;;;5001735;28;20082;-75
2023/08/26 04:30:56;;;;;;;6.95;4.25;;;12.90;99.90;;;;;;4985682;28;20047;-77
2023/08/26 04:33:22;;;;;;;7.47;4.47;;;12.90;99.90;;;;;;4989356;28;20050;-75
2023/08/26 04:35:47;;;;;;;10.18;5.05;;;12.90;99.90;;;;;;5000409;28;20054;-75
2023/08/26 04:38:13;;;;;;;9.32;4.57;;;12.80;99.90;;;;;;4984501;28;20508;-75
2023/08/26 04:40:41;;;;;;;6.47;4.57;;;12.80;99.90;;;;;;4969142;28;20675;-75
2023/08/26 04:43:10;;;;;;;10.23;4.30;;;12.80;99.90;;;;;;4981427;28;20097;-76
2023/08/26 04:45:37;;;;;;;7.35;4.38;;;12.80;99.90;;;;;;4984791;28;20042;-76
2023/08/26 04:48:04;;;;;;;8.30;4.43;;;12.80;99.90;;;;;;4983244;28;20054;-76
2023/08/26 04:50:30;;;;;;;9.55;4.20;;;13.00;99.90;;;;;;5000311;28;20064;-76
2023/08/26 04:52:56;;;;;;;6.68;3.78;;;13.00;99.90;;;;;;4985549;28;20501;-75
2023/08/26 04:55:22;;;;;;;5.93;4.13;;;13.10;99.90;;;;;;5000619;28;20493;-75
2023/08/26 04:57:47;;;;;;;5.15;3.90;;;13.20;99.90;;;;;;4983285;28;20500;-75
2023/08/26 05:00:16;;;;;;;6.25;4.15;;;13.30;99.90;;;;;;4958659;28;20043;-75
2023/08/26 05:02:42;;;;;;;9.13;4.97;;;13.40;99.90;;;;;;4988648;28;20481;-75
2023/08/26 05:05:07;;;;;;;7.70;4.75;;;13.50;99.90;;;;;;4980282;28;20085;-75
2023/08/26 05:07:33;;;;;;;10.80;5.03;;;13.50;99.90;;;;;;4979686;28;20460;-75
2023/08/26 05:09:59;;;;;;;8.90;4.68;;;13.60;99.90;;;;;;4984617;28;20110;-75
2023/08/26 05:12:26;;;;;;;8.02;5.05;;;13.70;99.90;;;;;;4968246;28;20042;-75
2023/08/26 05:14:51;;;;;;;8.18;5.40;;;13.80;99.90;;;;;;4983099;28;20042;-75
2023/08/26 05:17:17;;;;;;;9.18;5.03;;;13.80;99.90;;;;;;4974995;28;20057;-75
2023/08/26 05:19:43;;;;;;;9.00;4.82;;;13.80;99.90;;;;;;4978930;28;20043;-75
2023/08/26 05:22:08;;;;;;;10.52;5.50;;;13.90;99.90;;;;;;4968552;28;20042;-75
2023/08/26 05:24:34;;;;;;;7.05;4.47;;;13.90;99.90;;;;;;4996155;28;20076;-75
2023/08/26 05:27:00;;;;;;;12.23;5.28;;;13.90;99.90;;;;;;4983124;28;20828;-75
2023/08/26 05:29:25;;;;;;;8.77;5.05;;;14.00;99.90;;;;;;4999616;28;20552;-76
2023/08/26 05:31:51;;;;;;;9.23;5.53;;;14.10;99.90;;;;;;4983650;28;20034;-75
2023/08/26 05:34:16;;;;;;;10.10;5.47;;;14.10;99.90;;;;;;4984974;28;20050;-75
2023/08/26 05:36:42;;;;;;;9.90;5.80;;;14.20;99.90;;;;;;4983166;28;20133;-75
2023/08/26 05:39:08;;;;;;;9.93;6.03;;;14.20;99.90;;;;;;4984362;28;20397;-75
2023/08/26 05:41:33;;;;;;;10.27;5.72;;;14.30;99.90;;;;;;4984111;28;20089;-76
2023/08/26 05:43:59;;;;;;;11.18;5.72;;;14.30;99.90;;;;;;5000496;28;20043;-76
2023/08/26 05:46:24;;;;;;;10.70;5.57;;;14.40;99.90;;;;;;4983577;28;20116;-75
2023/08/26 05:48:50;;;;;;;9.57;6.38;;;14.40;99.90;;;;;;4997840;28;20097;-76
2023/08/26 05:51:15;;;;;;;10.85;6.22;;;14.40;99.90;;;;;;4994670;28;20632;-76
2023/08/26 05:53:41;;;;;;;11.68;6.18;;;14.50;99.90;;;;;;4977942;28;20042;-75
2023/08/26 05:56:07;;;;;;;12.60;6.10;;;14.50;99.90;;;;;;4980373;28;20579;-76
2023/08/26 05:58:33;;;;;;;10.27;5.45;;;14.60;99.90;;;;;;4976773;28;20074;-75
2023/08/26 06:00:59;;;;;;;10.48;6.15;;;14.60;99.90;;;;;;4978774;28;20058;-75
2023/08/26 06:03:24;;;;;;;7.85;5.82;;;14.70;99.90;;;;;;4993920;28;20449;-75
2023/08/26 06:05:50;;;;;;;9.65;6.05;;;14.80;99.90;;;;;;4980245;28;20472;-75
2023/08/26 06:08:16;;;;;;;10.30;6.43;;;14.80;99.90;;;;;;4985721;28;20117;-74
2023/08/26 06:10:41;;;;;;;11.50;6.00;;;14.90;99.90;;;;;;4979618;28;20501;-76
2023/08/26 06:13:07;;;;;;;8.27;6.18;;;14.90;99.90;;;;;;4981918;28;20034;-76
2023/08/26 06:15:33;;;;;;;12.80;6.00;;;15.00;99.90;;;;;;4980086;28;20069;-76
2023/08/26 06:17:59;;;;;;;8.50;5.65;;;15.00;99.90;;;;;;4965475;28;20125;-76
2023/08/26 06:20:26;;;;;;;9.55;6.25;;;15.00;99.90;;;;;;4982944;28;20125;-76
2023/08/26 06:22:52;;;;;;;10.82;6.70;;;15.10;99.90;;;;;;4999904;28;20042;-76
2023/08/26 06:25:17;;;;;;;9.85;6.07;;;15.10;99.90;;;;;;4991830;28;20642;-76
2023/08/26 06:27:43;;;;;;;11.23;7.68;;;15.10;99.90;;;;;;4995123;28;20039;-76
2023/08/26 06:30:10;;;;;;;13.00;6.55;;;15.10;99.90;;;;;;4978870;28;20133;-75
2023/08/26 06:32:35;;;;;;;11.57;6.20;;;15.20;99.90;;;;;;4958555;28;20408;-76
2023/08/26 06:35:01;;;;;;;12.43;6.40;;;15.20;99.90;;;;;;4979928;28;20047;-76
2023/08/26 06:37:27;;;;;;;9.88;6.07;;;15.30;99.90;;;;;;4996313;28;20125;-76
2023/08/26 06:39:52;;;;;;;10.35;6.10;;;15.30;99.90;;;;;;4979254;28;20050;-75
2023/08/26 06:42:18;;;;;;;13.15;6.32;;;15.30;99.90;;;;;;4984321;28;20046;-75
2023/08/26 06:44:44;;;;;;;9.32;6.15;;;15.30;99.90;;;;;;4965942;28;20122;-75
2023/08/26 06:47:10;;;;;;;10.25;6.35;;;15.30;99.90;;;;;;4998812;28;20497;-76
2023/08/26 06:49:36;;;;;;;9.95;6.55;;;15.40;99.90;;;;;;4980811;28;20042;-75
2023/08/26 06:52:02;;;;;;;14.93;7.22;;;15.40;99.90;;;;;;4983557;28;20027;-75
2023/08/26 06:54:28;;;;;;;10.90;8.15;;;15.50;99.90;;;;;;4988067;28;20116;-75
2023/08/26 06:56:53;;;;;;;11.82;6.70;;;15.60;99.90;;;;;;4979912;28;20038;-75
2023/08/26 06:59:19;;;;;;;11.05;7.13;;;15.70;99.90;;;;;;4981352;28;20054;-74
2023/08/26 07:01:45;;;;;;;13.45;7.63;;;15.80;99.90;;;;;;4985541;28;20041;-75
2023/08/26 07:04:11;;;;;;;12.88;7.80;;;15.80;99.90;;;;;;4980160;28;20050;-76
2023/08/26 07:06:37;;;;;;;11.90;8.70;;;15.90;99.90;;;;;;4971169;28;20728;-77
2023/08/26 07:09:04;;;;;;;18.80;9.25;;;16.00;99.90;;;;;;4982800;28;20046;-76
2023/08/26 07:11:30;;;;;;;15.82;9.45;;;16.10;99.90;;;;;;4983100;28;20203;-76
2023/08/26 07:13:57;;;;;;;13.45;9.40;;;16.20;99.90;;;;;;4974933;28;20134;-77
2023/08/26 07:16:24;;;;;;;14.32;9.55;;;16.30;99.90;;;;;;4998163;28;20501;-78
2023/08/26 07:18:49;;;;;;;15.35;10.00;;;16.50;99.90;;;;;;4969363;28;20404;-76
2023/08/26 07:21:15;;;;;;;16.65;9.68;;;16.70;99.90;;;;;;4986177;28;20047;-77
2023/08/26 07:23:41;;;;;;;18.65;10.70;;;16.80;99.90;;;;;;4982176;28;20046;-76
2023/08/26 07:26:06;;;;;;;15.98;10.98;;;16.80;99.90;;;;;;4984827;28;20064;-77
2023/08/26 07:28:32;;;;;;;14.63;10.40;;;16.90;99.90;;;;;;4986183;28;20060;-77
2023/08/26 07:31:03;;;;;;;20.23;10.77;;;16.80;99.90;;;;;;4977607;28;20077;-76
2023/08/26 07:33:29;;;;;;;18.20;11.27;;;16.70;99.90;;;;;;4998118;28;20100;-76
2023/08/26 07:36:09;;;;;;;18.33;11.32;;;16.60;99.90;;;;;;4983486;28;20049;-77
2023/08/26 07:38:37;;;;;;;19.30;11.23;;;16.60;99.90;;;;;;4986102;28;20424;-76
2023/08/26 07:41:02;;;;;;;20.38;11.07;;;16.60;99.90;;;;;;4982507;28;20039;-76
2023/08/26 07:43:28;;;;;;;15.52;10.48;;;16.50;99.90;;;;;;4981537;28;20038;-76
2023/08/26 07:45:54;;;;;;;18.65;11.27;;;16.50;99.90;;;;;;4980123;28;20505;-75
2023/08/26 07:48:20;;;;;;;17.52;11.65;;;16.50;99.90;;;;;;4980748;28;20034;-76
2023/08/26 07:50:45;;;;;;;18.73;12.35;;;16.60;99.90;;;;;;4981950;28;20030;-76
2023/08/26 07:53:11;;;;;;;16.25;11.73;;;16.70;99.90;;;;;;4983662;28;20050;-76
2023/08/26 07:55:37;;;;;;;20.25;10.85;;;16.70;99.90;;;;;;4990765;28;20209;-76
2023/08/26 07:58:05;;;;;;;15.13;10.52;;;16.70;99.90;;;;;;4980260;28;20050;-75
2023/08/26 08:00:31;;;;;;;16.15;10.90;;;16.70;99.90;;;;;;4977790;28;20089;-76
2023/08/26 08:02:57;;;;;;;16.55;10.60;;;16.50;82.50;;;;;;4980586;28;20453;-76
2023/08/26 08:05:22;;;;;;;18.38;10.82;;;16.50;99.90;;;;;;4968743;28;20042;-77
2023/08/26 08:07:48;;;;;;;16.38;10.38;;;16.60;99.90;;;;;;4998384;28;20034;-77
2023/08/26 08:10:14;;;;;;;18.98;10.50;;;16.60;99.70;;;;;;4981166;28;20042;-76
2023/08/26 08:12:39;;;;;;;15.05;10.05;;;16.60;99.90;;;;;;4983708;28;20512;-76
2023/08/26 08:15:06;;;;;;;12.65;9.63;;;16.60;99.90;;;;;;4983760;28;20100;-75
2023/08/26 08:17:32;;;;;;;15.02;9.38;;;16.70;99.90;;;;;;4970026;28;20038;-76
2023/08/26 08:19:58;;;;;;;13.63;9.30;;;16.90;99.90;;;;;;4980582;28;20046;-75
2023/08/26 08:22:38;;;;;;;13.63;9.75;;;17.20;99.90;;;;;;4964049;28;20046;-76
2023/08/26 08:25:05;;;;;;;13.85;8.85;;;17.30;97.30;;;;;;4963592;28;20050;-76
2023/08/26 08:27:31;;;;;;;11.55;8.63;;;17.40;95.90;;;;;;4968518;28;20131;-76
2023/08/26 08:30:00;;;;;;;12.32;8.88;;;17.50;41.20;;;;;;4980838;28;20635;-77
2023/08/26 08:32:26;;;;;;;14.48;9.13;;;17.40;1.00;;;;;;4967387;28;20073;-76
2023/08/26 08:34:52;;;;;;;14.05;8.55;;;17.40;1.00;;;;;;4968372;28;20050;-77
2023/08/26 08:37:18;;;;;;;11.02;7.78;;;17.70;1.00;;;;;;4976029;28;20076;-77
2023/08/26 08:39:44;;;;;;;18.42;9.00;;;18.00;1.00;;;;;;4975820;28;20042;-78
2023/08/26 08:42:13;;;;;;;10.85;7.63;;;18.30;1.00;;;;;;4979706;28;20034;-76
2023/08/26 08:44:41;;;;;;;11.13;7.47;;;18.50;1.00;;;;;;4978392;28;20042;-77
2023/08/26 08:47:08;;;;;;;10.27;7.75;;;18.50;99.90;;;;;;4975619;28;20543;-77
2023/08/26 08:49:36;;;;;;;9.90;7.18;;;18.60;99.90;;;;;;4979313;28;20393;-78
2023/08/26 08:52:05;;;;;;;10.18;6.88;;;18.70;1.00;;;;;;4977428;28;20108;-77
2023/08/26 08:54:33;;;;;;;11.57;6.95;;;18.90;1.00;;;;;;4978524;28;20140;-77
2023/08/26 08:57:00;;;;;;;10.95;7.30;;;18.80;99.90;;;;;;4979730;28;20038;-78
2023/08/26 08:59:29;;;;;;;11.77;7.00;;;18.80;99.90;;;;;;4979572;28;20050;-80
2023/08/26 09:01:57;;;;;;;8.88;6.93;;;18.90;99.90;;;;;;4966155;28;20413;-78
2023/08/26 09:04:23;;;;;;;9.02;6.88;;;19.00;99.90;;;;;;4968074;28;20038;-78
2023/08/26 09:06:50;;;;;;;9.65;6.80;;;19.00;99.90;;;;;;4982351;28;20047;-78
2023/08/26 09:09:16;;;;;;;8.88;6.50;;;18.90;99.90;;;;;;4982190;28;20046;-78
2023/08/26 09:11:42;;;;;;;11.05;6.65;;;19.10;99.90;;;;;;4976218;28;20649;-78
2023/08/26 09:14:08;;;;;;;8.07;6.82;;;19.50;99.90;;;;;;4981644;28;20043;-78
2023/08/26 09:16:38;;;;;;;8.63;6.65;;;19.90;99.90;;;;;;4998785;28;20046;-78
2023/08/26 09:19:08;;;;;;;10.73;6.78;;;20.20;99.90;;;;;;4973791;28;20046;-78
2023/08/26 09:21:33;;;;;;;8.93;6.15;;;20.10;2.10;;;;;;4982018;28;20046;-78
2023/08/26 09:24:03;;;;;;;10.38;6.63;;;19.90;1.00;;;;;;4982059;28;20045;-78
2023/08/26 09:26:29;;;;;;;8.25;6.70;;;20.00;1.00;;;;;;4982079;28;20039;-79
2023/08/26 09:28:55;;;;;;;7.55;5.88;;;20.90;1.00;;;;;;4977276;28;20045;-79
2023/08/26 09:31:20;;;;;;;7.38;5.00;;;22.00;99.90;;;;;;4988903;28;20141;-79
2023/08/26 09:33:59;;;;;;;7.18;5.20;;;22.20;99.90;;;;;;4983361;28;20042;-79
2023/08/26 09:36:41;;;;;;;8.65;5.43;;;22.20;99.90;;;;;;4960440;28;20074;-79
2023/08/26 09:39:14;;;;;;;5.95;4.72;;;23.20;52.20;;;;;;4981557;28;20057;-81
2023/08/26 09:41:44;;;;;;;5.97;4.70;;;23.40;1.00;;;;;;4983372;28;20109;-80
2023/08/26 09:44:11;;;;;;;7.72;4.25;;;22.70;68.50;;;;;;4973596;28;20489;-81
2023/08/26 09:46:39;;;;;;;10.00;5.60;;;22.20;63.80;;;;;;4980254;28;20035;-82
2023/08/26 09:49:14;;;;;;;6.35;4.22;;;22.50;83.60;;;;;;4964725;28;20576;-81
2023/08/26 09:51:48;;;;;;;6.28;4.25;;;22.40;13.10;;;;;;4976494;28;20045;-81
2023/08/26 09:54:18;;;;;;;5.15;3.85;;;23.00;12.00;;;;;;4995628;28;20140;-81
2023/08/26 09:56:45;;;;;;;6.40;3.75;;;23.60;1.00;;;;;;4997123;28;20096;-81
2023/08/26 09:59:11;;;;;;;8.23;4.53;;;23.80;1.00;;;;;;4980139;28;20081;-81
2023/08/26 10:01:39;;;;;;;6.75;3.75;;;24.20;1.00;;;;;;4963063;28;20042;-80
2023/08/26 10:04:05;;;;;;;5.45;3.85;;;24.40;1.00;;;;;;4976940;28;20047;-81
2023/08/26 10:06:34;;;;;;;6.97;3.38;;;24.30;1.00;;;;;;4978864;28;20042;-81
2023/08/26 10:09:38;;;;;;;6.22;3.50;;;24.00;1.00;;;;;;4978941;28;20496;-81
2023/08/26 10:12:09;;;;;;;8.07;4.30;;;23.30;1.00;;;;;;4983434;28;20384;-81
2023/08/26 10:14:36;;;;;;;5.13;3.55;;;22.70;1.00;;;;;;5000464;28;20504;-80
2023/08/26 10:17:06;;;;;;;6.28;3.60;;;22.20;1.00;;;;;;4999103;28;20050;-81
2023/08/26 10:19:32;;;;;;;7.30;3.30;;;22.50;1.00;;;;;;4980797;28;20042;-82
2023/08/26 10:21:59;;;;;;;10.57;3.58;;;23.70;1.00;;;;;;4967906;28;20533;-81
2023/08/26 10:24:25;;;;;;;6.78;3.50;;;25.10;1.00;;;;;;4983217;28;20043;-81
2023/08/26 10:26:51;;;;;;;4.20;2.65;;;26.20;1.00;;;;;;5008343;28;20033;-81
2023/08/26 10:29:17;;;;;;;3.25;2.10;;;26.60;1.00;;;;;;4989992;28;20523;-80
2023/08/26 10:31:45;;;;;;;6.72;2.15;;;26.90;1.00;;;;;;4985929;28;20125;-80
2023/08/26 10:34:11;;;;;;;2.72;1.90;;;27.70;1.00;;;;;;4988187;28;20074;-81
2023/08/26 10:36:38;;;;;;;3.90;1.67;;;28.70;1.00;;;;;;4987375;28;20528;-81
2023/08/26 10:39:16;;;;;;;2.83;1.25;;;29.20;1.00;;;;;;4979657;28;20074;-81
2023/08/26 10:42:11;;;;;;;1.70;1.30;;;28.70;1.00;;;;;;4983890;28;20049;-80
2023/08/26 10:44:39;;;;;;;5.90;1.48;;;27.70;1.00;;;;;;5000369;28;20057;-80
2023/08/26 10:47:04;;;;;;;4.15;1.33;;;26.70;1.00;;;;;;4981346;28;20038;-81
2023/08/26 10:49:30;;;;;;;3.92;1.00;;;27.00;1.00;;;;;;4997494;28;20030;-81
2023/08/26 10:52:17;;;;;;;2.38;0.90;;;27.20;1.00;;;;;;4985706;28;20038;-80
2023/08/26 10:54:44;;;;;;;3.92;1.35;;;27.10;1.00;;;;;;4969277;28;20532;-81
2023/08/26 10:57:09;;;;;;;1.73;0.80;;;27.20;1.00;;;;;;4978856;28;20045;-80
2023/08/26 10:59:36;;;;;;;2.10;1.00;;;27.20;1.00;;;;;;4987730;28;20037;-80
2023/08/26 11:02:07;;;;;;;1.90;0.90;;;27.50;1.00;;;;;;4986396;28;20030;-79
2023/08/26 11:04:34;;;;;;;2.85;0.95;;;27.80;1.00;;;;;;4973152;28;20100;-80
2023/08/26 11:07:00;;;;;;;2.78;1.10;;;28.60;1.00;;;;;;4981517;28;20153;-80
2023/08/26 11:09:26;;;;;;;3.08;0.90;;;28.40;1.00;;;;;;4981497;28;20129;-81
2023/08/26 11:11:52;;;;;;;2.00;0.80;;;28.30;1.00;;;;;;4987310;28;20038;-81
2023/08/26 11:14:17;;;;;;;3.45;0.88;;;28.40;1.00;;;;;;4999327;28;20073;-82
2023/08/26 11:16:44;;;;;;;2.50;1.48;;;28.60;1.00;;;;;;4983145;28;20042;-82
2023/08/26 11:19:10;;;;;;;2.10;0.95;;;28.60;1.00;;;;;;4986136;28;20072;-81
2023/08/26 11:21:38;;;;;;;3.60;0.95;;;28.80;1.00;;;;;;4979871;28;20078;-81
2023/08/26 11:24:04;;;;;;;4.07;1.38;;;28.80;1.00;;;;;;4968023;28;20099;-81
2023/08/26 11:26:31;;;;;;;2.30;0.80;;;29.30;1.00;;;;;;4985117;28;20542;-80
2023/08/26 11:29:00;;;;;;;2.78;0.90;;;29.20;1.00;;;;;;4984331;28;20030;-80
2023/08/26 11:31:26;;;;;;;2.50;0.70;;;28.40;1.00;;;;;;4985121;28;20046;-80
2023/08/26 11:33:52;;;;;;;1.17;0.70;;;27.30;1.00;;;;;;4982619;28;20182;-80
2023/08/26 11:36:21;;;;;;;4.10;0.82;;;27.30;1.00;;;;;;4966626;28;20054;-81
2023/08/26 11:38:47;;;;;;;1.75;0.80;;;27.60;1.00;;;;;;4986032;28;20084;-80
2023/08/26 11:41:13;;;;;;;1.60;0.65;;;27.60;1.00;;;;;;4984663;28;20082;-81
2023/08/26 11:43:38;;;;;;;2.03;0.70;;;27.40;1.00;;;;;;4992472;28;20030;-80
2023/08/26 11:46:05;;;;;;;4.18;0.85;;;26.80;1.00;;;;;;4965944;28;20042;-80
2023/08/26 11:48:36;;;;;;;1.52;0.60;;;26.30;1.00;;;;;;4986448;28;20643;-80
2023/08/26 11:51:05;;;;;;;1.92;0.82;;;25.80;1.00;;;;;;4982543;28;20034;-81
2023/08/26 11:53:31;;;;;;;2.10;0.77;;;25.50;1.00;;;;;;4965537;28;20464;-81
2023/08/26 11:55:57;;;;;;;2.85;0.80;;;25.40;1.00;;;;;;4984796;28;20035;-81
2023/08/26 11:58:23;;;;;;;1.88;0.80;;;25.00;1.00;;;;;;4980294;28;20096;-84
2023/08/26 12:00:48;;;;;;;2.17;1.00;;;25.10;1.00;;;;;;4965768;28;20250;-82
2023/08/26 12:03:14;;;;;;;1.83;1.00;;;25.60;1.00;;;;;;4999633;28;20121;-82
2023/08/26 12:05:52;;;;;;;4.50;1.40;;;25.10;1.00;;;;;;4980000;28;20057;-82
2023/08/26 12:08:20;;;;;;;2.15;1.50;;;24.00;1.00;;;;;;4983734;28;20052;-82
2023/08/26 12:10:47;;;;;;;3.40;1.30;;;23.40;1.00;;;;;;4966105;28;20042;-82
2023/08/26 12:13:13;;;;;;;2.30;1.40;;;22.80;1.00;;;;;;4994856;28;20559;-82
2023/08/26 12:15:40;;;;;;;3.30;1.30;;;22.60;1.00;;;;;;4962911;28;20038;-83
2023/08/26 12:18:06;;;;;;;2.33;1.30;;;22.60;1.00;;;;;;4991476;28;20409;-82
2023/08/26 12:20:32;;;;;;;4.65;1.40;;;23.00;1.00;;;;;;4972178;28;20054;-82
2023/08/26 12:23:00;;;;;;;2.42;1.40;;;23.70;1.00;;;;;;4982308;28;20619;-82
2023/08/26 12:25:35;;;;;;;3.08;1.52;;;24.60;1.00;;;;;;4968939;28;20125;-82
2023/08/26 12:28:08;;;;;;;2.35;1.10;;;24.70;1.00;;;;;;4989626;28;20044;-81
2023/08/26 12:30:34;;;;;;;1.20;0.98;;;24.50;1.00;;;;;;4991442;28;20137;-82
2023/08/26 12:32:59;;;;;;;2.50;1.25;;;23.90;1.00;;;;;;5000682;28;20129;-83
2023/08/26 12:35:25;;;;;;;2.20;1.20;;;23.40;1.00;;;;;;4983842;28;20046;-82
2023/08/26 12:37:51;;;;;;;1.58;1.40;;;23.00;1.00;;;;;;4965217;28;20070;-81
2023/08/26 12:40:17;;;;;;;2.72;1.70;;;22.60;1.00;;;;;;4984739;28;20077;-82
2023/08/26 12:42:42;;;;;;;3.25;1.35;;;22.40;1.00;;;;;;4966632;28;20406;-81